createdAt,value
2022-11-28T00:00:02.010Z,64.42
2022-11-28T00:05:15.252Z,64.42
2022-11-28T00:10:18.057Z,63.70
2022-11-28T00:15:20.826Z,63.94
2022-11-28T00:20:23.684Z,63.93
2022-11-28T00:25:26.522Z,64.32
2022-11-28T00:30:29.163Z,64.21
2022-11-28T00:35:31.863Z,64.58
2022-11-28T00:40:34.529Z,63.95
2022-11-28T00:45:37.376Z,64.59
2022-11-28T00:50:40.114Z,64.86
2022-11-28T00:55:42.745Z,65.08
2022-11-28T01:00:45.503Z,64.21
2022-11-28T01:05:48.224Z,64.59
2022-11-28T01:10:50.868Z,64.70
2022-11-28T01:15:53.761Z,65.10
2022-11-28T01:20:56.525Z,64.45
2022-11-28T01:25:59.343Z,63.91
2022-11-28T01:31:10.045Z,64.66
2022-11-28T01:36:14.026Z,64.16
2022-11-28T01:41:19.069Z,64.60
2022-11-28T01:46:21.981Z,64.92
2022-11-28T01:51:25.109Z,64.73
2022-11-28T01:56:30.686Z,64.85
2022-11-28T02:01:33.424Z,64.54
2022-11-28T02:06:36.620Z,64.88
2022-11-28T02:11:59.877Z,63.72
2022-11-28T02:17:27.167Z,64.27
2022-11-28T02:22:37.352Z,63.94
2022-11-28T02:28:08.129Z,64.10
2022-11-28T02:33:15.429Z,64.54
2022-11-28T02:38:48.594Z,63.73
2022-11-28T02:44:17.445Z,63.71
2022-11-28T02:49:47.828Z,63.47
2022-11-28T02:54:51.737Z,63.53
2022-11-28T02:59:55.867Z,63.28
2022-11-28T03:05:14.518Z,63.85
2022-11-28T03:10:23.946Z,63.30
2022-11-28T03:15:33.254Z,63.70
2022-11-28T03:20:57.864Z,63.54
2022-11-28T03:26:06.220Z,62.95
2022-11-28T03:31:15.885Z,63.02
2022-11-28T03:36:28.174Z,62.75
2022-11-28T03:41:45.053Z,62.69
2022-11-28T03:46:49.364Z,62.98
2022-11-28T03:52:13.738Z,62.80
2022-11-28T03:57:31.412Z,63.00
2022-11-28T04:02:57.171Z,62.25
2022-11-28T04:08:16.271Z,62.70
2022-11-28T04:13:32.643Z,62.15
2022-11-28T04:18:57.013Z,61.75
2022-11-28T04:24:04.028Z,61.51
2022-11-28T04:29:10.639Z,61.16
2022-11-28T04:34:16.649Z,60.73
2022-11-28T04:39:22.211Z,60.74
2022-11-28T04:44:27.964Z,60.54
2022-11-28T04:49:31.149Z,61.08
2022-11-28T04:54:33.757Z,60.70
2022-11-28T04:59:36.610Z,59.87
2022-11-28T05:04:39.555Z,60.30
2022-11-28T05:09:42.289Z,59.75
2022-11-28T05:14:45.048Z,59.30
2022-11-28T05:19:47.781Z,59.60
2022-11-28T05:24:50.582Z,59.92
2022-11-28T05:29:54.233Z,59.34
2022-11-28T05:34:56.966Z,59.78
2022-11-28T05:39:59.752Z,59.42
2022-11-28T05:45:02.680Z,59.79
2022-11-28T05:50:06.852Z,59.33
2022-11-28T05:55:09.899Z,59.13
2022-11-28T06:00:14.748Z,59.28
2022-11-28T06:05:41.054Z,58.68
2022-11-28T06:10:40.590Z,58.73
2022-11-28T06:15:45.163Z,58.88
2022-11-28T06:20:47.898Z,59.15
2022-11-28T06:25:50.652Z,58.37
2022-11-28T06:30:53.290Z,58.30
2022-11-28T06:36:01.344Z,58.26
2022-11-28T06:41:10.028Z,58.34
2022-11-28T06:46:19.357Z,58.34
2022-11-28T06:51:22.907Z,58.47
2022-11-28T06:56:25.884Z,58.16
2022-11-28T07:01:31.202Z,58.94
2022-11-28T07:06:34.555Z,59.30
2022-11-28T07:11:37.266Z,58.76
2022-11-28T07:16:40.027Z,59.52
2022-11-28T07:21:42.863Z,58.82
2022-11-28T07:26:47.311Z,59.31
2022-11-28T07:31:50.020Z,59.13
2022-11-28T07:36:52.717Z,58.77
2022-11-28T07:41:55.531Z,58.80
2022-11-28T07:46:58.360Z,59.24
2022-11-28T07:52:01.687Z,59.16
2022-11-28T07:57:12.350Z,59.10
2022-11-28T08:02:16.143Z,59.01
2022-11-28T08:07:20.065Z,59.49
2022-11-28T08:12:22.821Z,59.38
2022-11-28T08:17:25.544Z,59.08
2022-11-28T08:22:28.720Z,59.22
2022-11-28T08:27:32.649Z,59.58
2022-11-28T08:32:35.641Z,60.06
2022-11-28T08:37:38.380Z,60.37
2022-11-28T08:42:41.446Z,59.86
2022-11-28T08:47:44.277Z,59.88
2022-11-28T08:52:46.939Z,60.07
2022-11-28T08:57:49.612Z,60.33
2022-11-28T09:02:52.232Z,60.90
2022-11-28T09:07:55.597Z,60.83
2022-11-28T09:12:58.351Z,61.29
2022-11-28T09:18:01.316Z,61.24
2022-11-28T09:23:03.996Z,61.72
2022-11-28T09:28:07.710Z,61.11
2022-11-28T09:33:10.380Z,61.30
2022-11-28T09:38:13.053Z,61.60
2022-11-28T09:43:27.392Z,61.60
2022-11-28T09:48:45.211Z,61.66
2022-11-28T09:54:16.511Z,61.56
2022-11-28T09:59:29.361Z,61.33
2022-11-28T10:05:03.111Z,61.88
2022-11-28T10:10:24.854Z,61.86
2022-11-28T10:15:39.063Z,61.68
2022-11-28T10:20:46.699Z,62.59
2022-11-28T10:26:07.008Z,62.93
2022-11-28T10:31:16.961Z,62.68
2022-11-28T10:36:34.034Z,63.37
2022-11-28T10:42:26.243Z,63.43
2022-11-28T10:47:45.062Z,63.87
2022-11-28T10:53:02.023Z,64.11
2022-11-28T10:58:44.017Z,64.18
2022-11-28T11:03:47.027Z,63.83
2022-11-28T11:08:49.753Z,64.66
2022-11-28T11:14:08.774Z,64.66
2022-11-28T11:19:27.571Z,64.56
2022-11-28T11:24:30.642Z,65.29
2022-11-28T11:29:36.313Z,64.74
2022-11-28T11:34:46.203Z,65.04
2022-11-28T11:39:51.593Z,64.66
2022-11-28T11:44:54.935Z,64.72
2022-11-28T11:50:04.786Z,65.09
2022-11-28T11:55:16.962Z,65.16
2022-11-28T12:00:21.842Z,64.52
2022-11-28T12:05:59.013Z,64.42
2022-11-28T12:11:18.446Z,64.32
2022-11-28T12:16:45.332Z,64.40
2022-11-28T12:21:48.291Z,63.99
2022-11-28T12:26:54.018Z,64.69
2022-11-28T12:32:10.663Z,65.00
2022-11-28T12:37:48.311Z,64.50
2022-11-28T12:43:29.429Z,64.38
2022-11-28T12:48:38.916Z,64.76
2022-11-28T12:53:46.892Z,64.78
2022-11-28T12:59:00.000Z,65.16
2022-11-28T13:04:20.680Z,64.97
2022-11-28T13:09:37.277Z,65.11
2022-11-28T13:14:49.207Z,65.59
2022-11-28T13:20:15.251Z,66.30
2022-11-28T13:25:47.900Z,65.27
2022-11-28T13:30:57.841Z,66.31
2022-11-28T13:36:01.848Z,66.05
2022-11-28T13:41:35.327Z,66.86
2022-11-28T13:46:35.015Z,66.46
2022-11-28T13:51:38.222Z,65.88
2022-11-28T13:56:41.019Z,65.88
2022-11-28T14:01:48.655Z,66.21
2022-11-28T14:07:00.361Z,66.25
2022-11-28T14:12:18.616Z,66.94
2022-11-28T14:17:45.551Z,66.29
2022-11-28T14:23:14.032Z,67.06
2022-11-28T14:28:28.330Z,66.48
2022-11-28T14:33:40.375Z,66.71
2022-11-28T14:38:44.986Z,66.50
2022-11-28T14:43:49.284Z,66.54
2022-11-28T14:49:01.057Z,67.23
2022-11-28T14:54:04.147Z,67.46
2022-11-28T14:59:11.033Z,67.17
2022-11-28T15:04:35.734Z,66.43
2022-11-28T15:09:47.825Z,66.56
2022-11-28T15:14:52.591Z,66.76
2022-11-28T15:19:56.304Z,66.93
2022-11-28T15:24:59.550Z,66.65
2022-11-28T15:30:03.916Z,66.77
2022-11-28T15:35:12.821Z,65.77
2022-11-28T15:40:26.241Z,65.88
2022-11-28T15:45:31.661Z,66.21
2022-11-28T15:50:34.889Z,67.00
2022-11-28T15:55:37.612Z,66.67
2022-11-28T16:00:42.348Z,66.25
2022-11-28T16:05:46.295Z,66.84
2022-11-28T16:10:49.141Z,66.60
2022-11-28T16:15:53.260Z,66.78
2022-11-28T16:20:57.752Z,66.52
2022-11-28T16:26:08.691Z,66.99
2022-11-28T16:31:19.855Z,66.50
2022-11-28T16:36:37.601Z,66.22
2022-11-28T16:41:52.270Z,66.09
2022-11-28T16:46:57.591Z,66.33
2022-11-28T16:52:34.114Z,65.58
2022-11-28T16:57:47.261Z,66.41
2022-11-28T17:02:53.468Z,66.51
2022-11-28T17:07:56.426Z,66.54
2022-11-28T17:12:59.152Z,65.91
2022-11-28T17:18:01.826Z,66.93
2022-11-28T17:23:04.951Z,66.35
2022-11-28T17:28:09.680Z,66.90
2022-11-28T17:33:16.438Z,67.13
2022-11-28T17:38:20.461Z,67.08
2022-11-28T17:43:23.228Z,67.05
2022-11-28T17:48:25.914Z,66.74
2022-11-28T17:53:28.583Z,66.38
2022-11-28T17:58:31.504Z,67.48
2022-11-28T18:03:34.151Z,66.78
2022-11-28T18:08:36.824Z,66.74
2022-11-28T18:13:42.698Z,67.73
2022-11-28T18:18:45.936Z,67.57
2022-11-28T18:23:50.944Z,67.31
2022-11-28T18:28:54.671Z,67.36
2022-11-28T18:34:02.614Z,68.17
2022-11-28T18:39:11.941Z,67.53
2022-11-28T18:44:14.707Z,68.07
2022-11-28T18:49:19.453Z,67.33
2022-11-28T18:54:23.702Z,67.68
2022-11-28T18:59:26.572Z,67.26
2022-11-28T19:04:29.263Z,66.99
2022-11-28T19:09:32.136Z,67.71
2022-11-28T19:14:34.870Z,66.74
2022-11-28T19:19:40.182Z,67.60
2022-11-28T19:24:42.779Z,67.33
2022-11-28T19:29:45.821Z,66.85
2022-11-28T19:34:52.666Z,68.06
2022-11-28T19:39:59.706Z,67.04
2022-11-28T19:45:06.218Z,67.35
2022-11-28T19:50:10.561Z,68.48
2022-11-28T19:55:13.274Z,67.76
2022-11-28T20:00:16.618Z,68.25
2022-11-28T20:05:22.632Z,67.78
2022-11-28T20:10:25.986Z,68.95
2022-11-28T20:15:28.971Z,68.61
2022-11-28T20:20:31.733Z,68.47
2022-11-28T20:25:34.623Z,68.29
2022-11-28T20:30:38.419Z,69.21
2022-11-28T20:35:41.085Z,68.80
2022-11-28T20:40:43.993Z,68.28
2022-11-28T20:45:46.747Z,68.59
2022-11-28T20:50:49.437Z,67.88
2022-11-28T20:56:05.128Z,68.42
2022-11-28T21:01:08.321Z,68.02
2022-11-28T21:06:11.594Z,68.15
2022-11-28T21:11:36.919Z,68.33
2022-11-28T21:16:42.486Z,68.72
2022-11-28T21:21:45.228Z,68.81
2022-11-28T21:26:52.900Z,68.96
2022-11-28T21:31:56.519Z,68.13
2022-11-28T21:36:59.220Z,68.76
2022-11-28T21:42:02.728Z,68.64
2022-11-28T21:47:05.926Z,69.09
2022-11-28T21:52:09.825Z,68.22
2022-11-28T21:57:12.457Z,68.75
2022-11-28T22:02:15.884Z,67.94
2022-11-28T22:07:18.761Z,68.79
2022-11-28T22:12:22.074Z,67.70
2022-11-28T22:17:25.545Z,67.22
2022-11-28T22:22:29.016Z,68.18
2022-11-28T22:27:32.742Z,67.29
2022-11-28T22:32:35.668Z,67.32
2022-11-28T22:37:38.757Z,67.64
2022-11-28T22:42:41.436Z,68.25
2022-11-28T22:47:44.186Z,67.42
2022-11-28T22:52:46.887Z,67.95
2022-11-28T22:57:49.581Z,67.58
2022-11-28T23:02:52.321Z,67.53
2022-11-28T23:07:55.599Z,67.34
2022-11-28T23:12:58.471Z,67.09
2022-11-28T23:18:01.592Z,67.12
2022-11-28T23:23:04.474Z,66.71
2022-11-28T23:28:07.693Z,67.46
2022-11-28T23:33:10.387Z,66.98
2022-11-28T23:38:13.240Z,67.56
2022-11-28T23:43:15.905Z,67.24
2022-11-28T23:48:18.890Z,66.89
2022-11-28T23:53:21.825Z,66.57
2022-11-28T23:58:24.559Z,66.34
